Time;durP1;ratioP1;P1;durP2;ratioP2;P2;SDS_P1;SDS_P2;PMS_P1;PMS_P2;Temp;Humidity;BMP_temperature;BMP_pressure;BME280_temperature;BME280_humidity;BME280_pressure;Samples;Min_cycle;Max_cycle;Signal;HPM_P1;HPM_P2
2023/11/11 00:01:52;;;;;;;0.40;0.40;;;8.70;99.90;;;;;;5032512;28;20687;-91
2023/11/11 00:04:18;;;;;;;0.40;0.40;;;8.80;99.90;;;;;;5017820;28;20272;-91
2023/11/11 00:06:45;;;;;;;0.20;0.20;;;8.80;99.90;;;;;;5033476;28;21040;-91
2023/11/11 00:09:11;;;;;;;0.70;0.70;;;8.80;99.90;;;;;;5038667;28;20194;-90
2023/11/11 00:11:37;;;;;;;0.30;0.30;;;8.80;99.90;;;;;;5037120;28;20605;-90
2023/11/11 00:14:03;;;;;;;0.40;0.40;;;8.90;99.90;;;;;;5036221;28;20232;-91
2023/11/11 00:16:30;;;;;;;0.30;0.30;;;8.80;99.90;;;;;;5035893;28;20230;-91
2023/11/11 00:18:56;;;;;;;0.20;0.20;;;8.90;99.90;;;;;;5037111;28;20240;-91
2023/11/11 00:21:22;;;;;;;0.10;0.10;;;8.90;99.90;;;;;;5035494;28;20222;-92
2023/11/11 00:23:48;;;;;;;0.30;0.30;;;8.90;99.90;;;;;;5036970;28;20238;-90
2023/11/11 00:26:14;;;;;;;0.30;0.30;;;8.90;99.90;;;;;;5037625;28;20313;-90
2023/11/11 00:28:41;;;;;;;0.10;0.10;;;8.90;99.90;;;;;;5037037;28;20254;-92
2023/11/11 00:31:10;;;;;;;0.20;0.20;;;8.80;99.90;;;;;;5018145;28;20261;-91
2023/11/11 00:33:38;;;;;;;0.30;0.30;;;8.80;99.90;;;;;;5038062;28;20214;-91
2023/11/11 00:36:08;;;;;;;0.40;0.40;;;8.80;99.90;;;;;;5019322;28;20197;-90
2023/11/11 00:38:35;;;;;;;0.37;0.37;;;8.80;99.90;;;;;;5022814;28;20210;-92
2023/11/11 00:41:01;;;;;;;0.20;0.20;;;8.70;99.90;;;;;;5037172;28;20215;-92
2023/11/11 00:43:26;;;;;;;0.40;0.40;;;8.70;99.90;;;;;;5019945;28;20926;-91
2023/11/11 00:45:53;;;;;;;0.20;0.20;;;8.70;99.90;;;;;;5020267;28;20246;-92
2023/11/11 00:48:19;;;;;;;0.30;0.30;;;8.60;99.90;;;;;;5036400;28;20296;-92
2023/11/11 00:50:45;;;;;;;0.10;0.10;;;8.60;99.90;;;;;;5035232;28;20210;-91
2023/11/11 00:53:11;;;;;;;0.30;0.30;;;8.60;99.90;;;;;;5032324;28;20579;-90
2023/11/11 00:55:37;;;;;;;0.20;0.20;;;8.50;99.90;;;;;;5032050;28;20214;-91
2023/11/11 00:58:03;;;;;;;0.50;0.50;;;8.50;99.90;;;;;;5013996;28;20765;-92
2023/11/11 01:00:30;;;;;;;0.20;0.20;;;8.50;99.90;;;;;;5033952;28;20222;-92
2023/11/11 01:02:56;;;;;;;0.30;0.30;;;8.50;99.90;;;;;;5030317;28;20194;-91
2023/11/11 01:05:23;;;;;;;0.20;0.20;;;8.60;99.90;;;;;;5016035;28;20225;-90
2023/11/11 01:07:49;;;;;;;0.30;0.30;;;8.70;99.90;;;;;;5001673;28;20209;-92
2023/11/11 01:10:18;;;;;;;0.30;0.30;;;8.80;99.90;;;;;;5014173;28;20218;-92
2023/11/11 01:12:45;;;;;;;1.50;0.47;;;8.90;99.90;;;;;;5016411;28;20312;-94
2023/11/11 01:15:12;;;;;;;0.30;0.30;;;9.10;99.90;;;;;;5017165;28;20245;-93
2023/11/11 01:17:38;;;;;;;0.33;0.33;;;9.20;99.90;;;;;;5033668;28;20190;-93
2023/11/11 01:20:05;;;;;;;0.13;0.13;;;9.20;99.90;;;;;;5035959;28;20235;-90
2023/11/11 01:22:31;;;;;;;0.77;0.77;;;9.20;99.90;;;;;;5036326;28;20222;-93
2023/11/11 01:24:58;;;;;;;0.30;0.20;;;9.10;99.90;;;;;;5017352;28;20560;-91
2023/11/11 01:27:24;;;;;;;0.10;0.10;;;9.00;99.90;;;;;;5035045;28;20219;-93
2023/11/11 01:29:49;;;;;;;0.10;0.10;;;9.00;99.90;;;;;;5018291;28;20202;-94
2023/11/11 01:32:17;;;;;;;0.30;0.30;;;9.00;99.90;;;;;;5037210;28;20223;-91
2023/11/11 01:34:43;;;;;;;0.20;0.20;;;9.00;99.90;;;;;;5036274;28;20230;-92
2023/11/11 01:37:09;;;;;;;0.30;0.30;;;9.00;99.90;;;;;;5018611;28;20267;-92
2023/11/11 01:39:35;;;;;;;0.40;0.40;;;9.00;99.90;;;;;;5020256;28;20318;-92
2023/11/11 01:42:02;;;;;;;0.13;0.13;;;9.10;99.90;;;;;;5036060;28;21051;-93
2023/11/11 01:44:29;;;;;;;0.30;0.30;;;9.00;99.90;;;;;;5037583;28;21035;-93
2023/11/11 01:46:55;;;;;;;0.20;0.20;;;8.90;99.90;;;;;;5034402;28;20724;-92
2023/11/11 01:49:22;;;;;;;0.20;0.20;;;8.80;99.90;;;;;;5019173;28;20237;-92
2023/11/11 01:51:52;;;;;;;0.13;0.13;;;8.70;99.90;;;;;;5032262;28;20368;-94
2023/11/11 01:54:20;;;;;;;0.40;0.40;;;8.70;99.90;;;;;;5015230;28;20223;-91
2023/11/11 01:56:46;;;;;;;0.30;0.30;;;8.70;99.90;;;;;;5036638;28;20191;-93
2023/11/11 01:59:13;;;;;;;0.97;0.47;;;8.80;99.90;;;;;;5017596;28;20231;-92
2023/11/11 02:01:38;;;;;;;0.20;0.20;;;8.80;99.90;;;;;;5035604;28;20214;-92
2023/11/11 02:04:04;;;;;;;0.13;0.13;;;8.80;99.90;;;;;;5034567;28;21061;-92
2023/11/11 02:06:31;;;;;;;0.47;0.47;;;8.80;99.90;;;;;;5025167;28;20222;-92
2023/11/11 02:08:57;;;;;;;0.30;0.30;;;8.80;99.90;;;;;;5035465;28;20224;-91
2023/11/11 02:11:23;;;;;;;0.20;0.20;;;8.90;99.90;;;;;;5017595;28;20219;-90
2023/11/11 02:13:49;;;;;;;0.30;0.30;;;8.90;99.90;;;;;;5014892;28;20556;-91
2023/11/11 02:16:16;;;;;;;0.20;0.20;;;8.90;99.90;;;;;;5037262;28;20232;-92
2023/11/11 02:18:42;;;;;;;0.23;0.23;;;9.00;99.90;;;;;;5033063;28;20594;-93
2023/11/11 02:21:08;;;;;;;0.67;0.67;;;9.00;99.90;;;;;;5034464;28;20194;-91
2023/11/11 02:23:35;;;;;;;0.73;0.57;;;9.00;99.90;;;;;;5035544;28;20665;-92
2023/11/11 02:26:02;;;;;;;0.80;0.80;;;8.80;99.90;;;;;;5034113;28;20218;-91
2023/11/11 02:28:29;;;;;;;0.30;0.30;;;8.60;99.90;;;;;;5036389;28;20225;-93
2023/11/11 02:30:55;;;;;;;0.10;0.10;;;8.50;99.90;;;;;;5031139;28;20222;-92
2023/11/11 02:33:22;;;;;;;0.20;0.20;;;8.40;99.90;;;;;;5035863;28;20313;-91
2023/11/11 02:35:48;;;;;;;0.20;0.20;;;8.50;99.90;;;;;;5018965;28;20198;-93
2023/11/11 02:38:14;;;;;;;0.30;0.30;;;8.50;99.90;;;;;;5033898;28;20415;-94
2023/11/11 02:40:40;;;;;;;0.30;0.30;;;8.50;99.90;;;;;;5015668;28;20271;-90
2023/11/11 02:43:07;;;;;;;0.20;0.20;;;8.60;99.90;;;;;;5046703;28;20301;-93
2023/11/11 02:45:33;;;;;;;0.10;0.10;;;8.60;99.90;;;;;;5033399;28;20221;-93
2023/11/11 02:48:03;;;;;;;0.20;0.20;;;8.60;99.90;;;;;;5017278;28;20236;-93
2023/11/11 02:50:29;;;;;;;0.30;0.30;;;8.60;99.90;;;;;;5051500;28;20174;-92
2023/11/11 02:52:55;;;;;;;0.30;0.30;;;8.60;99.90;;;;;;5017317;28;20283;-91
2023/11/11 02:55:20;;;;;;;0.67;0.40;;;8.60;99.90;;;;;;5017045;28;20224;-93
2023/11/11 02:57:46;;;;;;;0.20;0.20;;;8.60;99.90;;;;;;5033049;28;20218;-92
2023/11/11 03:00:13;;;;;;;0.23;0.23;;;8.60;99.90;;;;;;5030990;28;20284;-93
2023/11/11 03:02:40;;;;;;;2.80;0.50;;;8.60;99.90;;;;;;5032044;28;20194;-92
2023/11/11 03:05:07;;;;;;;0.40;0.40;;;8.50;99.90;;;;;;5030999;28;20613;-92
2023/11/11 03:07:34;;;;;;;0.20;0.20;;;8.50;99.90;;;;;;5030717;28;20248;-93
2023/11/11 03:10:04;;;;;;;3.90;1.53;;;8.50;99.90;;;;;;5031539;28;20221;-92
2023/11/11 03:12:34;;;;;;;0.20;0.20;;;8.50;99.90;;;;;;5034496;28;20223;-92
2023/11/11 03:15:00;;;;;;;0.10;0.10;;;8.50;99.90;;;;;;5033633;28;20183;-91
2023/11/11 03:17:29;;;;;;;0.30;0.30;;;8.50;99.90;;;;;;5033929;28;20193;-93
2023/11/11 03:19:59;;;;;;;0.53;0.53;;;8.50;99.90;;;;;;5035593;28;20227;-91
2023/11/11 03:22:25;;;;;;;0.30;0.30;;;8.50;99.90;;;;;;5035071;28;20317;-89
2023/11/11 03:24:51;;;;;;;0.20;0.20;;;8.50;99.90;;;;;;5032384;28;20218;-92
2023/11/11 03:27:16;;;;;;;0.83;0.40;;;8.70;99.90;;;;;;5032791;28;20186;-90
2023/11/11 03:29:42;;;;;;;0.20;0.20;;;8.80;99.90;;;;;;5034430;28;20221;-92
2023/11/11 03:32:08;;;;;;;0.83;0.30;;;8.90;99.90;;;;;;5030823;28;20252;-95
2023/11/11 03:34:35;;;;;;;0.30;0.30;;;9.00;99.90;;;;;;5036528;28;20295;-94
2023/11/11 03:37:02;;;;;;;0.50;0.50;;;9.00;99.90;;;;;;5035876;28;20761;-93
2023/11/11 03:39:31;;;;;;;0.20;0.20;;;9.00;99.90;;;;;;5019312;28;20764;-91
2023/11/11 03:41:57;;;;;;;0.40;0.40;;;9.00;99.90;;;;;;5049825;28;20316;-91
2023/11/11 03:44:23;;;;;;;0.20;0.20;;;8.90;99.90;;;;;;5022843;28;20848;-93
2023/11/11 03:46:49;;;;;;;2.63;0.50;;;8.80;99.90;;;;;;5019002;28;20221;-93
2023/11/11 03:49:15;;;;;;;0.20;0.20;;;8.70;99.90;;;;;;5017269;28;20223;-93
2023/11/11 03:51:42;;;;;;;0.30;0.30;;;8.70;99.90;;;;;;5042015;28;20260;-93
2023/11/11 03:54:08;;;;;;;0.53;0.53;;;8.60;99.90;;;;;;5016965;28;20195;-95
2023/11/11 03:56:34;;;;;;;0.20;0.20;;;8.70;99.90;;;;;;5020688;28;20201;-93
2023/11/11 03:58:59;;;;;;;0.20;0.20;;;8.80;99.90;;;;;;5017800;28;20237;-94
2023/11/11 04:01:26;;;;;;;0.20;0.20;;;8.80;99.90;;;;;;5036024;28;20225;-92
2023/11/11 04:03:51;;;;;;;3.50;1.27;;;8.90;99.90;;;;;;5033400;28;20230;-93
2023/11/11 04:06:17;;;;;;;0.10;0.10;;;8.90;99.90;;;;;;5035083;28;20233;-94
2023/11/11 04:08:43;;;;;;;0.20;0.20;;;8.90;99.90;;;;;;5019342;28;20190;-91
2023/11/11 04:11:09;;;;;;;0.30;0.30;;;8.90;99.90;;;;;;5035776;28;20251;-91
2023/11/11 04:13:40;;;;;;;0.20;0.20;;;8.80;99.90;;;;;;5036679;28;20221;-93
2023/11/11 04:16:09;;;;;;;0.20;0.20;;;8.80;99.90;;;;;;5036028;28;21153;-94
2023/11/11 04:18:36;;;;;;;0.60;0.60;;;8.90;99.90;;;;;;5036008;28;20233;-95
2023/11/11 04:21:02;;;;;;;0.10;0.10;;;8.90;99.90;;;;;;5038785;28;20195;-95
2023/11/11 04:23:28;;;;;;;0.40;0.40;;;8.90;99.90;;;;;;5045608;28;20210;-91
2023/11/11 04:25:57;;;;;;;0.30;0.30;;;9.00;99.90;;;;;;5052863;28;20240;-94
2023/11/11 04:28:24;;;;;;;0.20;0.20;;;9.00;99.90;;;;;;5037955;28;20304;-93
2023/11/11 04:30:50;;;;;;;0.20;0.20;;;8.80;99.90;;;;;;5035379;28;20218;-93
2023/11/11 04:33:16;;;;;;;0.40;0.40;;;8.70;99.90;;;;;;5038921;28;20195;-95
2023/11/11 04:35:43;;;;;;;0.20;0.20;;;8.60;99.90;;;;;;5020206;28;20516;-94
2023/11/11 04:38:10;;;;;;;0.20;0.20;;;8.50;99.90;;;;;;5036418;28;20840;-95
2023/11/11 04:40:36;;;;;;;1.60;1.40;;;8.40;99.90;;;;;;5034385;28;20219;-94
2023/11/11 04:43:02;;;;;;;0.20;0.20;;;8.50;99.90;;;;;;5035957;28;20218;-93
2023/11/11 04:45:31;;;;;;;0.30;0.30;;;8.50;99.90;;;;;;5019620;28;20214;-93
2023/11/11 04:47:57;;;;;;;0.20;0.20;;;8.50;99.90;;;;;;5033230;28;20190;-92
2023/11/11 04:50:24;;;;;;;14.07;0.83;;;8.50;99.90;;;;;;5019880;28;20194;-93
2023/11/11 04:52:51;;;;;;;0.20;0.20;;;8.40;99.90;;;;;;5036445;28;20217;-93
2023/11/11 04:55:17;;;;;;;0.10;0.10;;;8.40;99.90;;;;;;5035894;28;20260;-93
2023/11/11 04:57:43;;;;;;;0.20;0.20;;;8.50;99.90;;;;;;5034648;28;20312;-91
2023/11/11 05:00:10;;;;;;;0.20;0.20;;;8.50;99.90;;;;;;5018566;28;20182;-95
2023/11/11 05:02:39;;;;;;;0.20;0.20;;;8.60;99.90;;;;;;5041710;28;20203;-94
2023/11/11 05:05:06;;;;;;;1.80;0.73;;;8.70;99.90;;;;;;5019967;28;20265;-93
2023/11/11 05:07:32;;;;;;;0.27;0.27;;;8.70;99.90;;;;;;5015388;28;21127;-92
2023/11/11 05:09:59;;;;;;;3.47;1.47;;;8.80;99.90;;;;;;5031685;28;20686;-94
2023/11/11 05:12:25;;;;;;;0.20;0.20;;;8.60;99.90;;;;;;5020414;28;20749;-95
2023/11/11 05:14:54;;;;;;;0.20;0.20;;;8.40;99.90;;;;;;5036779;28;20187;-94
2023/11/11 05:17:25;;;;;;;0.23;0.23;;;8.30;99.90;;;;;;5034275;28;20226;-92
2023/11/11 05:19:55;;;;;;;0.40;0.40;;;8.30;99.90;;;;;;5032980;28;20233;-93
2023/11/11 05:22:20;;;;;;;0.10;0.10;;;8.20;99.90;;;;;;5018281;28;20225;-93
2023/11/11 05:24:46;;;;;;;0.10;0.10;;;8.30;99.90;;;;;;5018235;28;20689;-91
2023/11/11 05:27:14;;;;;;;25.27;1.20;;;8.40;99.90;;;;;;5034704;28;20198;-92
2023/11/11 05:29:40;;;;;;;0.37;0.37;;;8.50;99.90;;;;;;5038731;28;20534;-93
2023/11/11 05:32:06;;;;;;;0.20;0.20;;;8.60;99.90;;;;;;5034435;28;20578;-92
2023/11/11 05:34:32;;;;;;;0.20;0.20;;;8.70;99.90;;;;;;5034290;28;20223;-93
2023/11/11 05:36:58;;;;;;;0.30;0.30;;;8.70;99.90;;;;;;5036121;28;20892;-95
2023/11/11 05:39:24;;;;;;;0.20;0.20;;;8.80;99.90;;;;;;5036123;28;20973;-91
2023/11/11 05:41:50;;;;;;;0.30;0.30;;;8.70;99.90;;;;;;5004780;28;20186;-94
2023/11/11 05:44:17;;;;;;;0.20;0.20;;;8.50;99.90;;;;;;5018798;28;20214;-95
2023/11/11 05:46:43;;;;;;;0.30;0.30;;;8.30;99.90;;;;;;5034152;28;20228;-92
2023/11/11 05:49:09;;;;;;;0.20;0.20;;;8.30;99.90;;;;;;5035348;28;20226;-92
2023/11/11 05:51:35;;;;;;;0.33;0.33;;;8.30;99.90;;;;;;5018589;28;20696;-92
2023/11/11 05:54:02;;;;;;;0.47;0.47;;;8.30;99.90;;;;;;5034093;28;20272;-92
2023/11/11 05:56:27;;;;;;;0.30;0.30;;;8.30;99.90;;;;;;5035090;28;20213;-92
2023/11/11 05:58:53;;;;;;;0.37;0.37;;;8.30;99.90;;;;;;5017165;28;20218;-91
2023/11/11 06:01:20;;;;;;;0.27;0.27;;;8.30;99.90;;;;;;5003311;28;20713;-91
2023/11/11 06:03:46;;;;;;;0.40;0.40;;;8.40;99.90;;;;;;5034301;28;20682;-93
2023/11/11 06:06:12;;;;;;;0.33;0.33;;;8.50;99.90;;;;;;5019050;28;20186;-93
2023/11/11 06:08:37;;;;;;;0.60;0.40;;;8.60;99.90;;;;;;5033520;28;20248;-92
2023/11/11 06:11:03;;;;;;;0.20;0.20;;;8.70;99.90;;;;;;5016025;28;20222;-94
2023/11/11 06:13:29;;;;;;;0.30;0.30;;;8.60;99.90;;;;;;5002457;28;20226;-92
2023/11/11 06:15:55;;;;;;;0.30;0.30;;;8.50;99.90;;;;;;5017191;28;20222;-93
2023/11/11 06:18:21;;;;;;;0.33;0.33;;;8.50;99.90;;;;;;5029079;28;20308;-91
2023/11/11 06:20:47;;;;;;;0.20;0.20;;;8.50;99.90;;;;;;5002097;28;20198;-92
2023/11/11 06:23:12;;;;;;;0.20;0.20;;;8.60;99.90;;;;;;5034516;28;20731;-90
2023/11/11 06:25:38;;;;;;;0.30;0.30;;;8.70;99.90;;;;;;5015499;28;20219;-90
2023/11/11 06:28:04;;;;;;;0.30;0.30;;;8.70;99.90;;;;;;5003974;28;20763;-94
2023/11/11 06:30:32;;;;;;;0.30;0.30;;;8.70;99.90;;;;;;5000845;28;20248;-92
2023/11/11 06:32:59;;;;;;;0.20;0.20;;;8.70;99.90;;;;;;5034719;28;20198;-91
2023/11/11 06:35:27;;;;;;;0.27;0.27;;;8.70;99.90;;;;;;5019293;28;20205;-92
2023/11/11 06:38:02;;;;;;;0.30;0.30;;;8.60;99.90;;;;;;5033289;28;20312;-92
2023/11/11 06:40:28;;;;;;;0.20;0.20;;;8.60;99.90;;;;;;5031460;28;20228;-91
2023/11/11 06:42:55;;;;;;;5.20;0.93;;;8.60;99.90;;;;;;5018223;28;20218;-90
2023/11/11 06:45:21;;;;;;;0.30;0.30;;;8.60;99.90;;;;;;5035974;28;20206;-92
2023/11/11 06:47:48;;;;;;;0.30;0.30;;;8.60;99.90;;;;;;5009657;28;20254;-91
2023/11/11 06:50:17;;;;;;;0.30;0.30;;;8.60;99.90;;;;;;5036379;28;20215;-90
2023/11/11 06:52:43;;;;;;;0.30;0.30;;;8.70;99.90;;;;;;5035751;28;20225;-91
2023/11/11 06:55:10;;;;;;;0.33;0.33;;;8.80;99.90;;;;;;5033532;28;20591;-93
2023/11/11 06:57:39;;;;;;;0.10;0.10;;;8.80;99.90;;;;;;5033290;28;20281;-92
2023/11/11 07:00:10;;;;;;;0.77;0.50;;;8.80;99.90;;;;;;5031150;28;20329;-90
2023/11/11 07:02:37;;;;;;;0.10;0.10;;;8.80;99.90;;;;;;5031879;28;20174;-93
2023/11/11 07:05:09;;;;;;;0.30;0.30;;;8.80;99.90;;;;;;5018613;28;20618;-92
2023/11/11 07:07:36;;;;;;;0.10;0.10;;;8.90;99.90;;;;;;5033770;28;20210;-90
2023/11/11 07:10:02;;;;;;;0.20;0.20;;;8.80;99.90;;;;;;5031904;28;20315;-92
2023/11/11 07:12:28;;;;;;;0.30;0.30;;;8.80;99.90;;;;;;5015036;28;20640;-89
2023/11/11 07:14:54;;;;;;;0.50;0.50;;;8.90;99.90;;;;;;5004567;28;20237;-92
2023/11/11 07:17:20;;;;;;;0.10;0.10;;;9.00;99.90;;;;;;5034699;28;20226;-93
2023/11/11 07:19:45;;;;;;;0.30;0.30;;;9.00;99.90;;;;;;5006496;28;20238;-92
2023/11/11 07:22:14;;;;;;;0.20;0.20;;;9.00;99.90;;;;;;5021090;28;20947;-92
2023/11/11 07:24:41;;;;;;;0.30;0.30;;;9.00;99.90;;;;;;5039422;28;20270;-91
2023/11/11 07:27:07;;;;;;;0.30;0.30;;;9.00;99.90;;;;;;5034271;28;20186;-93
2023/11/11 07:29:33;;;;;;;0.30;0.30;;;9.10;99.90;;;;;;5013932;28;20236;-94
2023/11/11 07:31:59;;;;;;;0.30;0.30;;;9.10;99.90;;;;;;5016855;28;20580;-94
2023/11/11 07:34:24;;;;;;;0.30;0.30;;;9.10;99.90;;;;;;5036182;28;20301;-94
2023/11/11 07:36:51;;;;;;;0.30;0.30;;;9.20;99.90;;;;;;5017010;28;20220;-94
2023/11/11 07:39:17;;;;;;;0.30;0.30;;;9.20;99.90;;;;;;5034384;28;20210;-93
2023/11/11 07:41:43;;;;;;;0.20;0.20;;;9.20;99.90;;;;;;5030900;28;20175;-93
2023/11/11 07:44:09;;;;;;;0.20;0.20;;;9.20;99.90;;;;;;5030639;28;20226;-94
2023/11/11 07:46:35;;;;;;;0.20;0.20;;;9.30;99.90;;;;;;5012730;28;20225;-93
2023/11/11 07:49:01;;;;;;;0.10;0.10;;;9.10;99.90;;;;;;5015458;28;20219;-95
2023/11/11 07:51:27;;;;;;;0.20;0.20;;;9.00;99.90;;;;;;5029170;28;20217;-93
2023/11/11 07:53:53;;;;;;;0.10;0.10;;;9.00;99.90;;;;;;5030140;28;20191;-93
2023/11/11 07:56:19;;;;;;;5.63;0.47;;;9.00;99.90;;;;;;5032743;28;20229;-94
2023/11/11 07:58:51;;;;;;;0.20;0.20;;;9.10;99.90;;;;;;5020120;28;20228;-94
2023/11/11 08:01:17;;;;;;;0.20;0.20;;;9.10;99.90;;;;;;5035139;28;20233;-91
2023/11/11 08:03:44;;;;;;;0.30;0.30;;;9.10;99.90;;;;;;5013673;28;20219;-93
2023/11/11 08:06:10;;;;;;;0.30;0.30;;;9.10;99.90;;;;;;5033232;28;20194;-94
2023/11/11 08:08:35;;;;;;;0.27;0.27;;;9.10;99.90;;;;;;5019786;28;20759;-95
2023/11/11 08:11:01;;;;;;;0.17;0.17;;;9.10;99.90;;;;;;5018079;28;20708;-93
2023/11/11 08:13:28;;;;;;;0.20;0.20;;;9.10;99.90;;;;;;5030128;28;20233;-92
2023/11/11 08:15:54;;;;;;;1.27;0.80;;;9.20;99.90;;;;;;5034560;28;20218;-92
2023/11/11 08:18:20;;;;;;;0.20;0.20;;;9.20;99.90;;;;;;5016576;28;20256;-92
2023/11/11 08:20:46;;;;;;;0.37;0.37;;;9.30;99.90;;;;;;5036173;28;20822;-92
2023/11/11 08:23:12;;;;;;;0.20;0.20;;;9.40;99.90;;;;;;5025579;28;20229;-92
2023/11/11 08:25:38;;;;;;;1.50;1.40;;;9.40;99.90;;;;;;5033653;28;20229;-92
2023/11/11 08:28:04;;;;;;;0.20;0.20;;;9.40;99.90;;;;;;5014991;28;20574;-92
2023/11/11 08:30:30;;;;;;;0.10;0.10;;;9.30;99.90;;;;;;5032713;28;20222;-92
2023/11/11 08:32:57;;;;;;;0.37;0.37;;;9.40;99.90;;;;;;5028152;28;20194;-93
2023/11/11 08:35:23;;;;;;;0.20;0.20;;;9.40;99.90;;;;;;5012338;28;20238;-92
2023/11/11 08:37:49;;;;;;;0.20;0.20;;;9.40;99.90;;;;;;5011729;28;20686;-93
2023/11/11 08:40:16;;;;;;;0.20;0.20;;;9.40;99.90;;;;;;5012651;28;20693;-93
2023/11/11 08:42:43;;;;;;;0.17;0.17;;;9.50;99.90;;;;;;5027332;28;20214;-92
2023/11/11 08:45:09;;;;;;;0.43;0.43;;;9.50;99.90;;;;;;5038355;28;20197;-91
2023/11/11 08:47:36;;;;;;;0.20;0.20;;;9.40;99.90;;;;;;5028479;28;20709;-92
2023/11/11 08:50:05;;;;;;;0.20;0.20;;;9.40;99.90;;;;;;5031459;28;20701;-91
2023/11/11 08:52:36;;;;;;;0.20;0.20;;;9.30;99.90;;;;;;5030419;28;20226;-89
2023/11/11 08:55:01;;;;;;;0.20;0.20;;;9.30;99.90;;;;;;5027891;28;20288;-90
2023/11/11 08:57:27;;;;;;;0.20;0.20;;;9.40;99.90;;;;;;5023327;28;20695;-90
2023/11/11 08:59:53;;;;;;;0.10;0.10;;;9.40;99.90;;;;;;5028530;28;20234;-89
2023/11/11 09:02:19;;;;;;;0.20;0.20;;;9.40;99.90;;;;;;5033817;28;20578;-90
2023/11/11 09:04:46;;;;;;;2.00;1.90;;;9.50;99.90;;;;;;5033717;28;20225;-91
2023/11/11 09:07:12;;;;;;;1.07;0.70;;;9.50;99.90;;;;;;5017157;28;20223;-92
2023/11/11 09:09:37;;;;;;;0.33;0.33;;;9.60;99.90;;;;;;5040245;28;20229;-96
2023/11/11 09:12:04;;;;;;;0.30;0.30;;;9.60;99.90;;;;;;5037886;28;20241;-95
2023/11/11 09:14:33;;;;;;;0.20;0.20;;;9.70;99.90;;;;;;5036593;28;20218;-95
2023/11/11 09:17:01;;;;;;;0.33;0.33;;;9.80;99.90;;;;;;5041587;28;20174;-96
2023/11/11 09:19:27;;;;;;;0.23;0.23;;;9.90;99.90;;;;;;5039331;28;20234;-96
2023/11/11 09:21:53;;;;;;;0.20;0.20;;;10.00;99.90;;;;;;5047561;28;20219;-94
2023/11/11 09:24:18;;;;;;;0.50;0.23;;;10.10;99.90;;;;;;5038699;28;20221;-96
2023/11/11 09:26:47;;;;;;;0.20;0.20;;;10.10;99.90;;;;;;5038151;28;20219;-96
2023/11/11 09:29:15;;;;;;;0.93;0.50;;;10.20;99.90;;;;;;5024137;28;20225;-95
2023/11/11 09:31:43;;;;;;;0.50;0.50;;;10.30;99.90;;;;;;5040863;28;20219;-94
2023/11/11 09:34:11;;;;;;;0.20;0.20;;;10.30;99.90;;;;;;5038297;28;20739;-93
2023/11/11 09:36:41;;;;;;;0.43;0.43;;;10.30;99.90;;;;;;5018907;28;20223;-93
2023/11/11 09:39:08;;;;;;;0.50;0.50;;;10.30;99.90;;;;;;5040362;28;20226;-95
2023/11/11 09:41:34;;;;;;;0.13;0.13;;;10.30;99.90;;;;;;5040334;28;20189;-94
2023/11/11 09:44:01;;;;;;;0.20;0.20;;;10.20;99.90;;;;;;5038721;28;20417;-92
2023/11/11 09:46:52;;;;;;;0.10;0.10;;;10.20;99.90;;;;;;5038613;28;20197;-96
2023/11/11 09:49:19;;;;;;;1.03;0.87;;;10.10;99.90;;;;;;5034707;28;20214;-95
2023/11/11 09:51:47;;;;;;;0.57;0.57;;;10.10;99.90;;;;;;5037412;28;20302;-96
2023/11/11 09:54:14;;;;;;;1.23;0.73;;;10.10;99.90;;;;;;5037489;28;20687;-95
2023/11/11 09:56:45;;;;;;;0.30;0.30;;;10.30;99.90;;;;;;5036635;28;20218;-96
2023/11/11 09:59:11;;;;;;;0.33;0.33;;;10.40;99.90;;;;;;5018662;28;20241;-94
2023/11/11 10:01:42;;;;;;;0.20;0.20;;;10.70;99.90;;;;;;5002989;28;20198;-95
2023/11/11 10:04:11;;;;;;;0.13;0.13;;;10.80;99.90;;;;;;5019154;28;20222;-95
2023/11/11 10:06:38;;;;;;;0.30;0.30;;;10.60;99.90;;;;;;5053269;28;20215;-93
2023/11/11 10:09:04;;;;;;;1.47;1.47;;;10.50;99.90;;;;;;5036120;28;20226;-91
2023/11/11 10:11:31;;;;;;;0.10;0.10;;;10.40;99.90;;;;;;5019958;28;20287;-92
2023/11/11 10:13:57;;;;;;;3.50;2.10;;;10.40;99.90;;;;;;5034190;28;20179;-90
2023/11/11 10:16:25;;;;;;;0.30;0.30;;;10.50;99.90;;;;;;5036894;28;20190;-90
2023/11/11 10:18:58;;;;;;;0.30;0.30;;;10.60;99.90;;;;;;5036143;28;20232;-90
2023/11/11 10:21:25;;;;;;;0.23;0.23;;;10.60;99.90;;;;;;5037053;28;20260;-92
2023/11/11 10:23:56;;;;;;;0.20;0.20;;;10.60;99.90;;;;;;5036318;28;20237;-96
2023/11/11 10:26:22;;;;;;;0.50;0.50;;;10.70;99.90;;;;;;5001376;28;20313;-96
2023/11/11 10:28:50;;;;;;;4.03;0.50;;;10.80;99.90;;;;;;5035775;28;20185;-95
2023/11/11 10:31:18;;;;;;;0.20;0.20;;;11.00;99.90;;;;;;5036368;28;20212;-96
2023/11/11 10:33:48;;;;;;;0.40;0.30;;;10.90;99.90;;;;;;5038551;28;20774;-96
2023/11/11 10:36:14;;;;;;;12.53;1.20;;;10.70;99.90;;;;;;5017730;28;20241;-96
2023/11/11 10:38:43;;;;;;;0.30;0.30;;;10.60;99.90;;;;;;5034080;28;20293;-96
2023/11/11 10:41:14;;;;;;;0.47;0.47;;;10.40;99.90;;;;;;5036067;28;20226;-95
2023/11/11 10:43:40;;;;;;;1.40;1.30;;;10.20;99.90;;;;;;5002692;28;20186;-93
2023/11/11 10:46:07;;;;;;;0.43;0.30;;;10.20;99.90;;;;;;5019261;28;20223;-95
2023/11/11 10:48:34;;;;;;;1.17;1.00;;;10.30;99.90;;;;;;5019983;28;20211;-94
2023/11/11 10:51:02;;;;;;;0.30;0.30;;;10.40;99.90;;;;;;5028911;28;20603;-96
2023/11/11 10:53:30;;;;;;;0.43;0.43;;;10.50;99.90;;;;;;5038751;28;20241;-94
2023/11/11 10:55:57;;;;;;;0.20;0.20;;;10.50;99.90;;;;;;5018963;28;20285;-94
2023/11/11 10:58:22;;;;;;;0.30;0.30;;;10.40;99.90;;;;;;5036484;28;20203;-96
2023/11/11 11:00:49;;;;;;;0.20;0.20;;;10.30;99.90;;;;;;5019556;28;20743;-96
2023/11/11 11:03:19;;;;;;;0.20;0.20;;;10.30;99.90;;;;;;5038220;28;20288;-94
2023/11/11 11:06:06;;;;;;;0.20;0.20;;;10.40;99.90;;;;;;5050048;28;20221;-96
2023/11/11 11:09:14;;;;;;;0.20;0.20;;;10.50;99.90;;;;;;5021894;28;20222;-96
2023/11/11 11:12:21;;;;;;;0.20;0.20;;;10.60;99.90;;;;;;5039603;28;20214;-96
2023/11/11 11:14:55;;;;;;;0.10;0.10;;;10.50;99.90;;;;;;5040131;28;20217;-92
2023/11/11 11:17:34;;;;;;;0.20;0.20;;;10.50;99.90;;;;;;5041871;28;20214;-95
2023/11/11 11:20:08;;;;;;;0.20;0.20;;;10.60;99.90;;;;;;5031564;28;20638;-95
2023/11/11 11:22:37;;;;;;;0.73;0.73;;;10.70;99.90;;;;;;5030249;28;20176;-94
2023/11/11 11:25:34;;;;;;;0.20;0.20;;;10.70;99.90;;;;;;5016238;28;20227;-95
2023/11/11 11:28:25;;;;;;;0.60;0.60;;;10.80;99.90;;;;;;5030518;28;20217;-95
2023/11/11 11:31:03;;;;;;;0.40;0.40;;;11.00;99.90;;;;;;5033182;28;20309;-94
2023/11/11 11:33:33;;;;;;;0.10;0.10;;;11.20;99.90;;;;;;5035883;28;20303;-95
2023/11/11 11:36:05;;;;;;;0.40;0.40;;;11.20;99.90;;;;;;5038671;28;20210;-94
2023/11/11 11:38:51;;;;;;;0.40;0.40;;;11.30;99.90;;;;;;5017379;28;20280;-95
2023/11/11 11:41:23;;;;;;;0.30;0.30;;;11.20;99.90;;;;;;5031163;28;20651;-93
2023/11/11 11:43:53;;;;;;;1.67;0.70;;;11.00;99.90;;;;;;5031638;28;20175;-95
2023/11/11 11:46:23;;;;;;;0.20;0.20;;;10.90;99.90;;;;;;5032070;28;20262;-94
2023/11/11 11:48:50;;;;;;;0.40;0.40;;;10.70;99.90;;;;;;5032298;28;20674;-94
2023/11/11 11:51:21;;;;;;;0.20;0.20;;;10.60;99.90;;;;;;5014832;28;20227;-94
2023/11/11 11:53:48;;;;;;;0.93;0.27;;;10.80;99.90;;;;;;5033866;28;20245;-95
2023/11/11 11:56:34;;;;;;;5.07;0.27;;;11.00;99.90;;;;;;5031220;28;20688;-95
2023/11/11 11:59:02;;;;;;;0.23;0.23;;;10.90;99.90;;;;;;5030651;28;20216;-94
2023/11/11 12:01:30;;;;;;;0.10;0.10;;;11.00;99.90;;;;;;5045036;28;20193;-93
2023/11/11 12:03:58;;;;;;;0.20;0.20;;;11.00;99.90;;;;;;5035768;28;20230;-93
2023/11/11 12:06:27;;;;;;;0.20;0.20;;;11.00;99.90;;;;;;5035927;28;20308;-94
2023/11/11 12:08:54;;;;;;;0.80;0.80;;;11.00;99.90;;;;;;5003149;28;20225;-93
2023/11/11 12:11:28;;;;;;;1.10;0.50;;;11.00;99.90;;;;;;5037813;28;20743;-93
2023/11/11 12:14:07;;;;;;;0.57;0.37;;;11.30;99.90;;;;;;5038830;28;20193;-94
2023/11/11 12:16:47;;;;;;;1.23;1.13;;;11.40;99.90;;;;;;5036590;28;20214;-95
2023/11/11 12:19:16;;;;;;;0.50;0.50;;;11.60;99.90;;;;;;5035322;28;20248;-95
2023/11/11 12:21:49;;;;;;;0.20;0.20;;;11.70;99.90;;;;;;5035408;28;20227;-94
2023/11/11 12:24:25;;;;;;;0.30;0.20;;;11.70;99.90;;;;;;5036679;28;20222;-94
2023/11/11 12:26:53;;;;;;;0.40;0.40;;;11.80;99.90;;;;;;5036201;28;20581;-94
2023/11/11 12:29:19;;;;;;;0.83;0.67;;;11.90;99.90;;;;;;5017546;28;20308;-94
2023/11/11 12:31:55;;;;;;;0.40;0.40;;;12.00;99.90;;;;;;5048985;28;20827;-95
2023/11/11 12:34:30;;;;;;;0.00;0.00;;;12.30;99.90;;;;;;5037590;28;20178;-95
2023/11/11 12:36:56;;;;;;;0.20;0.20;;;12.30;99.90;;;;;;5036075;28;20175;-96
2023/11/11 12:39:23;;;;;;;0.10;0.10;;;12.30;99.90;;;;;;5036537;28;20231;-94
2023/11/11 12:41:53;;;;;;;0.10;0.10;;;12.30;99.90;;;;;;5019618;28;20211;-95
2023/11/11 12:44:21;;;;;;;0.60;0.60;;;12.20;99.90;;;;;;5051486;28;20227;-94
2023/11/11 12:46:50;;;;;;;0.10;0.10;;;12.00;99.90;;;;;;5018542;28;21027;-96
2023/11/11 12:49:24;;;;;;;0.30;0.30;;;11.60;99.90;;;;;;5036193;28;20325;-95
2023/11/11 12:51:50;;;;;;;5.77;0.50;;;11.40;99.90;;;;;;5036017;28;20175;-93
2023/11/11 12:54:27;;;;;;;0.30;0.30;;;11.10;99.90;;;;;;5020452;28;20245;-95
2023/11/11 12:56:53;;;;;;;0.10;0.10;;;11.00;99.90;;;;;;5037399;28;20273;-94
2023/11/11 12:59:20;;;;;;;0.67;0.47;;;10.90;99.90;;;;;;5035432;28;20610;-95